»·PEaware :: DCM205 KGPI-KBZN

DCM205 :: KGPI-KBZN

FLIGHT INFORMATION

Flight Status: Arrived
Operator:
DotCom
More flights by this operator :: More flights under this callsign
Pilot: Chris S. (2433)
Aircraft: AIRBUS A320
(A320)
More flights by this aircraft type
Origin: KGPI Glacier Park Intl
United States
Destination: KBZN Gallatin
United States
More flights between these airports :: More routes between these airports
Route: +GPI1 CHOTE HLN GODFE
File this flight plan on PilotEdge
Remarks:
Altitude:
(Current/Filed)
29,000ft
Speed:
(Current/Filed)
450kts
Departed: 09-Jul-20 02:51 PM
Arrived: 09-Jul-20 03:31 PM
Distance/Time
Traveled:
198nm/0:39
Distance/Time
To Go:
Arrived

Flight Plot

Page will automatically refresh every two minutes.

Flight plan parsing failed; only flown route is shown


Map Options




Map Legend


Flown Route
Filed Route
Departure Airport
Arrival Airport
Navaid (VOR, NDB)
Fix

Horizontal Profiles

Position Reports

Time Latitude Longitude Heading Altitude Ground
Speed
09-Jul-20 14:32 48.307197 -114.254084 125 2983ft 0kts
09-Jul-20 14:33 48.307197 -114.254084 125 2983ft 0kts
09-Jul-20 14:34 48.307197 -114.254084 125 2983ft 0kts
09-Jul-20 14:35 48.307197 -114.254084 125 2983ft 0kts
09-Jul-20 14:36 48.307197 -114.254084 125 2983ft 0kts
09-Jul-20 14:37 48.307197 -114.254084 125 2983ft 0kts
09-Jul-20 14:37 48.307197 -114.254084 125 2983ft 0kts
09-Jul-20 14:39 48.307197 -114.254084 125 2983ft 0kts
09-Jul-20 14:39 48.307197 -114.254084 125 2983ft 0kts
09-Jul-20 14:40 48.307197 -114.254084 125 2983ft 0kts
09-Jul-20 14:42 48.307197 -114.254084 125 2983ft 0kts
09-Jul-20 14:42 48.307197 -114.254084 125 2983ft 0kts
09-Jul-20 14:44 48.307347 -114.254433 115 2983ft 2kts
09-Jul-20 14:44 48.307446 -114.255038 85 2983ft 0kts
09-Jul-20 14:45 48.307446 -114.255038 85 2983ft 0kts
09-Jul-20 14:47 48.307798 -114.254644 338 2983ft 5kts
09-Jul-20 14:47 48.309616 -114.254377 35 2983ft 13kts
09-Jul-20 14:48 48.313904 -114.249878 35 2983ft 21kts
09-Jul-20 14:49 48.318366 -114.245537 339 2983ft 9kts
09-Jul-20 14:50 48.314253 -114.251544 214 2983ft 93kts
09-Jul-20 14:51 48.280045 -114.286459 208 4299ft 161kts
09-Jul-20 14:52 48.234249 -114.316649 171 5822ft 212kts
09-Jul-20 14:53 48.170476 -114.270155 160 7631ft 282kts
09-Jul-20 14:54 48.095876 -114.231773 164 10764ft 288kts
09-Jul-20 14:55 48.012015 -114.186296 163 12063ft 352kts
09-Jul-20 14:56 47.943404 -114.079183 107 14203ft 392kts
09-Jul-20 14:57 47.934240 -113.914091 99 16474ft 405kts
09-Jul-20 14:58 47.907609 -113.748934 112 18367ft 416kts
09-Jul-20 14:59 47.881742 -113.577885 103 20263ft 430kts
09-Jul-20 15:00 47.855631 -113.401708 105 21970ft 440kts
09-Jul-20 15:01 47.829226 -113.221717 104 23516ft 450kts
09-Jul-20 15:02 47.801625 -113.037937 104 24916ft 460kts
09-Jul-20 15:03 47.773246 -112.850845 105 26433ft 463kts
09-Jul-20 15:04 47.744784 -112.665328 105 28083ft 460kts
09-Jul-20 15:05 47.716218 -112.481417 105 29001ft 452kts
09-Jul-20 15:06 47.687193 -112.298839 109 29004ft 452kts
09-Jul-20 15:07 47.612235 -112.161457 158 29023ft 429kts
09-Jul-20 15:08 47.498019 -112.126885 178 29028ft 418kts
09-Jul-20 15:09 47.382076 -112.104292 176 29009ft 425kts
09-Jul-20 15:10 47.264875 -112.081261 176 29010ft 424kts
09-Jul-20 15:11 47.147954 -112.058264 176 29015ft 424kts
09-Jul-20 15:12 47.031501 -112.035527 176 28605ft 419kts
09-Jul-20 15:13 46.915345 -112.012989 176 27618ft 422kts
09-Jul-20 15:14 46.798772 -111.990431 176 25498ft 421kts
09-Jul-20 15:15 46.682890 -111.968107 176 22869ft 419kts
09-Jul-20 15:16 46.575471 -111.909781 139 20319ft 426kts
09-Jul-20 15:17 46.495541 -111.784461 136 17703ft 418kts
09-Jul-20 15:18 46.415285 -111.665060 136 14878ft 403kts
09-Jul-20 15:19 46.339656 -111.550794 136 11483ft 384kts
09-Jul-20 15:20 46.268419 -111.446661 144 9832ft 329kts
09-Jul-20 15:21 46.190835 -111.415147 172 9326ft 263kts
09-Jul-20 15:22 46.121715 -111.397069 170 8833ft 253kts
09-Jul-20 15:23 46.052683 -111.379012 170 8289ft 249kts
09-Jul-20 15:24 45.989639 -111.362484 170 8035ft 208kts
09-Jul-20 15:25 45.933459 -111.347736 170 7394ft 203kts
09-Jul-20 15:26 45.887391 -111.304941 134 7514ft 194kts
09-Jul-20 15:27 45.853555 -111.255644 137 6428ft 158kts
09-Jul-20 15:28 45.821517 -111.211893 136 5353ft 158kts
09-Jul-20 15:29 45.788981 -111.167643 135 4558ft 161kts
09-Jul-20 15:30 45.772882 -111.146643 223 4485ft 12kts
09-Jul-20 15:31 45.773323 -111.150055 313 4485ft 20kts
09-Jul-20 15:32 45.777760 -111.156216 316 4485ft 19kts
09-Jul-20 15:33 45.778959 -111.159712 315 4485ft 11kts
09-Jul-20 15:34 45.779112 -111.160882 224 4485ft 0kts
09-Jul-20 15:35 45.779111 -111.160883 224 4485ft 0kts
09-Jul-20 15:36 45.779111 -111.160883 224 4485ft 0kts
09-Jul-20 15:37 45.779111 -111.160883 224 4485ft 0kts
09-Jul-20 15:38 45.779111 -111.160883 224 4485ft 0kts
09-Jul-20 15:39 45.779111 -111.160883 224 4485ft 0kts
09-Jul-20 15:40 45.779111 -111.160883 224 4485ft 0kts
09-Jul-20 15:41 45.779111 -111.160883 224 4485ft 0kts
09-Jul-20 15:42 45.779111 -111.160883 224 4485ft 0kts

Navigation Log

Ident Type
Flight plan parsing failed, navigation log unavailable